sensor_id;sensor_type;location;lat;lon;timestamp;temperature;humidity
12060;DHT22;6091;51.432;6.880;2022-10-16T00:01:40;24.70;43.30
12060;DHT22;6091;51.432;6.880;2022-10-16T00:04:07;24.70;42.70
12060;DHT22;6091;51.432;6.880;2022-10-16T00:06:35;24.80;42.80
12060;DHT22;6091;51.432;6.880;2022-10-16T00:09:02;24.70;43.20
12060;DHT22;6091;51.432;6.880;2022-10-16T00:11:32;24.70;42.80
12060;DHT22;6091;51.432;6.880;2022-10-16T00:14:07;24.60;43.20
12060;DHT22;6091;51.432;6.880;2022-10-16T00:16:37;24.70;42.80
12060;DHT22;6091;51.432;6.880;2022-10-16T00:19:04;24.70;43.30
12060;DHT22;6091;51.432;6.880;2022-10-16T00:21:32;24.60;42.70
12060;DHT22;6091;51.432;6.880;2022-10-16T00:24:03;24.70;42.80
12060;DHT22;6091;51.432;6.880;2022-10-16T00:26:33;24.70;42.80
12060;DHT22;6091;51.432;6.880;2022-10-16T00:29:02;24.60;42.70
12060;DHT22;6091;51.432;6.880;2022-10-16T00:31:30;24.50;43.20
12060;DHT22;6091;51.432;6.880;2022-10-16T00:33:57;24.70;42.80
12060;DHT22;6091;51.432;6.880;2022-10-16T00:36:25;24.70;42.80
12060;DHT22;6091;51.432;6.880;2022-10-16T00:38:54;24.70;42.80
12060;DHT22;6091;51.432;6.880;2022-10-16T00:41:24;24.70;43.80
12060;DHT22;6091;51.432;6.880;2022-10-16T00:43:56;24.70;42.80
12060;DHT22;6091;51.432;6.880;2022-10-16T00:46:45;24.70;43.40
12060;DHT22;6091;51.432;6.880;2022-10-16T00:49:17;24.70;43.40
12060;DHT22;6091;51.432;6.880;2022-10-16T00:51:51;24.70;42.80
12060;DHT22;6091;51.432;6.880;2022-10-16T00:56:51;24.60;42.80
12060;DHT22;6091;51.432;6.880;2022-10-16T00:59:26;24.70;42.90
12060;DHT22;6091;51.432;6.880;2022-10-16T01:01:56;24.60;43.40
12060;DHT22;6091;51.432;6.880;2022-10-16T01:04:24;24.60;42.80
12060;DHT22;6091;51.432;6.880;2022-10-16T01:13:03;24.70;43.50
12060;DHT22;6091;51.432;6.880;2022-10-16T01:18:44;24.60;42.80
12060;DHT22;6091;51.432;6.880;2022-10-16T01:21:16;24.60;43.30
12060;DHT22;6091;51.432;6.880;2022-10-16T01:23:50;24.70;42.90
12060;DHT22;6091;51.432;6.880;2022-10-16T01:27:03;24.60;43.40
12060;DHT22;6091;51.432;6.880;2022-10-16T01:29:57;24.70;43.50
12060;DHT22;6091;51.432;6.880;2022-10-16T01:35:38;24.60;42.80
12060;DHT22;6091;51.432;6.880;2022-10-16T01:38:34;24.50;42.80
12060;DHT22;6091;51.432;6.880;2022-10-16T01:41:14;24.60;42.80
12060;DHT22;6091;51.432;6.880;2022-10-16T01:46:34;24.60;42.90
12060;DHT22;6091;51.432;6.880;2022-10-16T01:49:05;24.60;42.90
12060;DHT22;6091;51.432;6.880;2022-10-16T01:51:35;24.60;42.90
12060;DHT22;6091;51.432;6.880;2022-10-16T01:54:05;24.50;43.40
12060;DHT22;6091;51.432;6.880;2022-10-16T01:56:35;24.50;42.90
12060;DHT22;6091;51.432;6.880;2022-10-16T01:59:10;24.50;42.90
12060;DHT22;6091;51.432;6.880;2022-10-16T02:01:44;24.60;42.90
12060;DHT22;6091;51.432;6.880;2022-10-16T02:04:23;24.50;42.90
12060;DHT22;6091;51.432;6.880;2022-10-16T02:07:00;24.50;42.80
12060;DHT22;6091;51.432;6.880;2022-10-16T02:09:32;24.60;43.50
12060;DHT22;6091;51.432;6.880;2022-10-16T02:12:15;24.50;42.80
12060;DHT22;6091;51.432;6.880;2022-10-16T02:14:48;24.50;42.90
12060;DHT22;6091;51.432;6.880;2022-10-16T02:17:17;24.50;42.90
12060;DHT22;6091;51.432;6.880;2022-10-16T02:19:47;24.50;42.90
12060;DHT22;6091;51.432;6.880;2022-10-16T02:22:30;24.60;42.90
12060;DHT22;6091;51.432;6.880;2022-10-16T02:30:33;24.50;42.90
12060;DHT22;6091;51.432;6.880;2022-10-16T02:33:03;24.50;43.50
12060;DHT22;6091;51.432;6.880;2022-10-16T02:35:34;24.50;43.40
12060;DHT22;6091;51.432;6.880;2022-10-16T02:38:02;24.50;42.90
12060;DHT22;6091;51.432;6.880;2022-10-16T02:40:30;24.50;42.90
12060;DHT22;6091;51.432;6.880;2022-10-16T02:42:57;24.50;43.00
12060;DHT22;6091;51.432;6.880;2022-10-16T02:45:24;24.50;42.90
12060;DHT22;6091;51.432;6.880;2022-10-16T02:47:51;24.50;43.00
12060;DHT22;6091;51.432;6.880;2022-10-16T02:50:18;24.50;43.00
12060;DHT22;6091;51.432;6.880;2022-10-16T02:52:45;24.50;42.90
12060;DHT22;6091;51.432;6.880;2022-10-16T02:55:12;25.90;44.50
12060;DHT22;6091;51.432;6.880;2022-10-16T02:57:39;24.50;43.40
12060;DHT22;6091;51.432;6.880;2022-10-16T03:00:09;24.50;43.00
12060;DHT22;6091;51.432;6.880;2022-10-16T03:02:38;24.60;43.00
12060;DHT22;6091;51.432;6.880;2022-10-16T03:05:06;24.50;42.90
12060;DHT22;6091;51.432;6.880;2022-10-16T03:07:33;24.50;42.90
12060;DHT22;6091;51.432;6.880;2022-10-16T03:10:00;24.50;42.90
12060;DHT22;6091;51.432;6.880;2022-10-16T03:12:28;24.50;43.50
12060;DHT22;6091;51.432;6.880;2022-10-16T03:14:55;24.50;43.00
12060;DHT22;6091;51.432;6.880;2022-10-16T03:17:24;24.50;43.50
12060;DHT22;6091;51.432;6.880;2022-10-16T03:19:51;24.50;43.50
12060;DHT22;6091;51.432;6.880;2022-10-16T03:22:18;24.50;43.50
12060;DHT22;6091;51.432;6.880;2022-10-16T03:24:45;24.50;43.00
12060;DHT22;6091;51.432;6.880;2022-10-16T03:27:12;24.50;43.00
12060;DHT22;6091;51.432;6.880;2022-10-16T03:29:39;24.50;43.00
12060;DHT22;6091;51.432;6.880;2022-10-16T03:32:06;24.40;43.40
12060;DHT22;6091;51.432;6.880;2022-10-16T03:34:33;24.50;43.00
12060;DHT22;6091;51.432;6.880;2022-10-16T03:37:00;24.60;43.10
12060;DHT22;6091;51.432;6.880;2022-10-16T03:39:27;24.50;43.00
12060;DHT22;6091;51.432;6.880;2022-10-16T03:41:54;24.50;43.00
12060;DHT22;6091;51.432;6.880;2022-10-16T03:44:21;24.50;43.00
12060;DHT22;6091;51.432;6.880;2022-10-16T03:46:48;24.40;43.40
12060;DHT22;6091;51.432;6.880;2022-10-16T03:49:15;24.50;44.10
12060;DHT22;6091;51.432;6.880;2022-10-16T03:51:41;24.50;43.10
12060;DHT22;6091;51.432;6.880;2022-10-16T03:54:09;24.80;43.30
12060;DHT22;6091;51.432;6.880;2022-10-16T03:56:36;24.50;43.10
12060;DHT22;6091;51.432;6.880;2022-10-16T03:59:03;24.50;43.10
12060;DHT22;6091;51.432;6.880;2022-10-16T04:01:30;24.50;43.00
12060;DHT22;6091;51.432;6.880;2022-10-16T04:03:57;24.40;43.40
12060;DHT22;6091;51.432;6.880;2022-10-16T04:06:24;24.50;43.10
12060;DHT22;6091;51.432;6.880;2022-10-16T04:08:51;24.40;43.00
12060;DHT22;6091;51.432;6.880;2022-10-16T04:11:18;24.40;43.40
12060;DHT22;6091;51.432;6.880;2022-10-16T04:13:45;24.50;43.10
12060;DHT22;6091;51.432;6.880;2022-10-16T04:16:12;24.40;43.50
12060;DHT22;6091;51.432;6.880;2022-10-16T04:21:07;24.50;43.10
12060;DHT22;6091;51.432;6.880;2022-10-16T04:23:34;24.40;43.60
12060;DHT22;6091;51.432;6.880;2022-10-16T04:26:01;24.50;43.10
12060;DHT22;6091;51.432;6.880;2022-10-16T04:28:28;24.40;43.50
12060;DHT22;6091;51.432;6.880;2022-10-16T04:30:55;24.40;43.50
12060;DHT22;6091;51.432;6.880;2022-10-16T04:33:22;24.40;43.10
12060;DHT22;6091;51.432;6.880;2022-10-16T04:35:56;24.40;43.70
12060;DHT22;6091;51.432;6.880;2022-10-16T04:38:24;24.40;43.10
12060;DHT22;6091;51.432;6.880;2022-10-16T04:40:52;24.50;43.10
12060;DHT22;6091;51.432;6.880;2022-10-16T04:43:19;24.40;43.60
12060;DHT22;6091;51.432;6.880;2022-10-16T04:45:46;24.40;43.10
12060;DHT22;6091;51.432;6.880;2022-10-16T04:48:13;24.50;43.20
12060;DHT22;6091;51.432;6.880;2022-10-16T04:50:41;24.50;43.20
12060;DHT22;6091;51.432;6.880;2022-10-16T04:53:08;24.40;43.70
12060;DHT22;6091;51.432;6.880;2022-10-16T04:55:35;24.40;43.10
12060;DHT22;6091;51.432;6.880;2022-10-16T04:58:01;24.40;43.60
12060;DHT22;6091;51.432;6.880;2022-10-16T05:00:28;24.50;43.20
12060;DHT22;6091;51.432;6.880;2022-10-16T05:02:55;24.40;43.10
12060;DHT22;6091;51.432;6.880;2022-10-16T05:05:23;24.50;43.20
12060;DHT22;6091;51.432;6.880;2022-10-16T05:07:51;24.50;43.20
12060;DHT22;6091;51.432;6.880;2022-10-16T05:10:18;24.40;43.10
12060;DHT22;6091;51.432;6.880;2022-10-16T05:12:46;24.40;43.70
12060;DHT22;6091;51.432;6.880;2022-10-16T05:15:13;24.40;43.60
12060;DHT22;6091;51.432;6.880;2022-10-16T05:17:40;24.40;43.10
12060;DHT22;6091;51.432;6.880;2022-10-16T05:20:11;24.50;43.20
12060;DHT22;6091;51.432;6.880;2022-10-16T05:22:38;24.40;43.20
12060;DHT22;6091;51.432;6.880;2022-10-16T05:25:05;24.40;43.10
12060;DHT22;6091;51.432;6.880;2022-10-16T05:27:33;24.50;43.20
12060;DHT22;6091;51.432;6.880;2022-10-16T05:30:00;24.40;43.20
12060;DHT22;6091;51.432;6.880;2022-10-16T05:34:54;24.50;43.20
12060;DHT22;6091;51.432;6.880;2022-10-16T05:37:21;24.40;43.20
12060;DHT22;6091;51.432;6.880;2022-10-16T05:39:48;24.40;43.20
12060;DHT22;6091;51.432;6.880;2022-10-16T05:42:14;24.40;43.50
12060;DHT22;6091;51.432;6.880;2022-10-16T05:44:41;24.50;43.20
12060;DHT22;6091;51.432;6.880;2022-10-16T05:47:08;24.40;43.20
12060;DHT22;6091;51.432;6.880;2022-10-16T05:49:37;24.40;43.70
12060;DHT22;6091;51.432;6.880;2022-10-16T05:52:07;24.40;43.20
12060;DHT22;6091;51.432;6.880;2022-10-16T05:54:34;24.40;43.20
12060;DHT22;6091;51.432;6.880;2022-10-16T05:57:00;24.50;43.30
12060;DHT22;6091;51.432;6.880;2022-10-16T06:01:55;24.40;43.20
12060;DHT22;6091;51.432;6.880;2022-10-16T06:04:22;24.40;43.20
12060;DHT22;6091;51.432;6.880;2022-10-16T06:06:49;24.40;43.20
12060;DHT22;6091;51.432;6.880;2022-10-16T06:11:44;24.50;43.30
12060;DHT22;6091;51.432;6.880;2022-10-16T06:14:10;24.40;43.20
12060;DHT22;6091;51.432;6.880;2022-10-16T06:16:42;24.40;43.70
12060;DHT22;6091;51.432;6.880;2022-10-16T06:19:09;24.40;43.20
12060;DHT22;6091;51.432;6.880;2022-10-16T06:21:36;24.30;43.20
12060;DHT22;6091;51.432;6.880;2022-10-16T06:24:03;24.40;43.20
12060;DHT22;6091;51.432;6.880;2022-10-16T06:28:59;24.30;43.20
12060;DHT22;6091;51.432;6.880;2022-10-16T06:31:27;24.40;43.30
12060;DHT22;6091;51.432;6.880;2022-10-16T06:33:57;24.40;43.80
12060;DHT22;6091;51.432;6.880;2022-10-16T06:36:25;24.40;43.30
12060;DHT22;6091;51.432;6.880;2022-10-16T06:38:53;24.40;43.20
12060;DHT22;6091;51.432;6.880;2022-10-16T06:41:21;24.40;43.70
12060;DHT22;6091;51.432;6.880;2022-10-16T06:43:49;24.40;43.30
12060;DHT22;6091;51.432;6.880;2022-10-16T06:46:19;24.40;43.20
12060;DHT22;6091;51.432;6.880;2022-10-16T06:48:48;24.30;43.20
12060;DHT22;6091;51.432;6.880;2022-10-16T06:51:20;24.40;43.20
12060;DHT22;6091;51.432;6.880;2022-10-16T06:53:54;24.40;43.80
12060;DHT22;6091;51.432;6.880;2022-10-16T06:56:32;24.40;43.20
12060;DHT22;6091;51.432;6.880;2022-10-16T06:59:00;24.40;43.30
12060;DHT22;6091;51.432;6.880;2022-10-16T07:01:28;24.40;43.80
12060;DHT22;6091;51.432;6.880;2022-10-16T07:03:55;24.40;43.80
12060;DHT22;6091;51.432;6.880;2022-10-16T07:06:24;24.50;43.40
12060;DHT22;6091;51.432;6.880;2022-10-16T07:08:52;24.40;43.30
12060;DHT22;6091;51.432;6.880;2022-10-16T07:11:22;24.30;43.20
12060;DHT22;6091;51.432;6.880;2022-10-16T07:13:51;24.40;43.30
12060;DHT22;6091;51.432;6.880;2022-10-16T07:16:24;24.40;43.30
12060;DHT22;6091;51.432;6.880;2022-10-16T07:19:00;24.40;43.30
12060;DHT22;6091;51.432;6.880;2022-10-16T07:21:32;24.40;43.80
12060;DHT22;6091;51.432;6.880;2022-10-16T07:24:05;24.40;44.00
12060;DHT22;6091;51.432;6.880;2022-10-16T07:26:37;24.40;43.30
12060;DHT22;6091;51.432;6.880;2022-10-16T07:29:20;24.40;43.80
12060;DHT22;6091;51.432;6.880;2022-10-16T07:31:48;24.30;43.20
12060;DHT22;6091;51.432;6.880;2022-10-16T07:34:18;24.40;43.80
12060;DHT22;6091;51.432;6.880;2022-10-16T07:36:49;24.40;43.30
12060;DHT22;6091;51.432;6.880;2022-10-16T07:39:17;24.40;43.80
12060;DHT22;6091;51.432;6.880;2022-10-16T07:41:44;24.40;44.00
12060;DHT22;6091;51.432;6.880;2022-10-16T07:44:11;24.40;43.40
12060;DHT22;6091;51.432;6.880;2022-10-16T07:49:05;24.40;43.30
12060;DHT22;6091;51.432;6.880;2022-10-16T07:51:32;24.40;43.80
12060;DHT22;6091;51.432;6.880;2022-10-16T07:53:59;24.50;44.00
12060;DHT22;6091;51.432;6.880;2022-10-16T07:56:26;24.50;43.80
12060;DHT22;6091;51.432;6.880;2022-10-16T07:58:53;24.40;43.40
12060;DHT22;6091;51.432;6.880;2022-10-16T08:01:20;24.50;43.40
12060;DHT22;6091;51.432;6.880;2022-10-16T08:03:49;24.50;43.40
12060;DHT22;6091;51.432;6.880;2022-10-16T08:06:19;24.40;43.90
12060;DHT22;6091;51.432;6.880;2022-10-16T08:11:22;24.40;43.40
12060;DHT22;6091;51.432;6.880;2022-10-16T08:13:49;24.50;43.60
12060;DHT22;6091;51.432;6.880;2022-10-16T08:16:16;24.30;43.90
12060;DHT22;6091;51.432;6.880;2022-10-16T08:18:44;24.50;43.70
12060;DHT22;6091;51.432;6.880;2022-10-16T08:21:16;24.50;43.70
12060;DHT22;6091;51.432;6.880;2022-10-16T08:23:47;24.50;44.40
12060;DHT22;6091;51.432;6.880;2022-10-16T08:26:23;24.50;44.40
12060;DHT22;6091;51.432;6.880;2022-10-16T08:28:51;24.50;43.90
12060;DHT22;6091;51.432;6.880;2022-10-16T08:31:19;24.50;44.00
12060;DHT22;6091;51.432;6.880;2022-10-16T08:33:46;24.50;44.50
12060;DHT22;6091;51.432;6.880;2022-10-16T08:36:15;24.60;44.10
12060;DHT22;6091;51.432;6.880;2022-10-16T08:38:42;24.50;44.70
12060;DHT22;6091;51.432;6.880;2022-10-16T08:43:54;24.60;44.10
12060;DHT22;6091;51.432;6.880;2022-10-16T08:47:17;24.70;44.10
12060;DHT22;6091;51.432;6.880;2022-10-16T08:50:00;24.60;44.00
12060;DHT22;6091;51.432;6.880;2022-10-16T08:52:40;24.60;43.90
12060;DHT22;6091;51.432;6.880;2022-10-16T08:55:29;24.70;44.00
12060;DHT22;6091;51.432;6.880;2022-10-16T08:57:57;24.60;44.50
12060;DHT22;6091;51.432;6.880;2022-10-16T09:00:24;24.70;43.90
12060;DHT22;6091;51.432;6.880;2022-10-16T09:15:22;24.70;43.80
12060;DHT22;6091;51.432;6.880;2022-10-16T09:21:14;24.70;43.80
12060;DHT22;6091;51.432;6.880;2022-10-16T09:23:47;24.70;43.70
12060;DHT22;6091;51.432;6.880;2022-10-16T09:26:15;24.70;43.80
12060;DHT22;6091;51.432;6.880;2022-10-16T09:28:44;24.70;43.80
12060;DHT22;6091;51.432;6.880;2022-10-16T09:31:20;24.70;43.70
12060;DHT22;6091;51.432;6.880;2022-10-16T09:33:57;24.80;43.80
12060;DHT22;6091;51.432;6.880;2022-10-16T09:36:28;24.80;43.80
12060;DHT22;6091;51.432;6.880;2022-10-16T09:39:06;24.80;43.80
12060;DHT22;6091;51.432;6.880;2022-10-16T09:41:38;24.80;43.70
12060;DHT22;6091;51.432;6.880;2022-10-16T09:44:34;24.80;43.80
12060;DHT22;6091;51.432;6.880;2022-10-16T09:47:16;24.90;44.40
12060;DHT22;6091;51.432;6.880;2022-10-16T09:49:58;24.90;43.80
12060;DHT22;6091;51.432;6.880;2022-10-16T09:52:33;24.90;43.80
12060;DHT22;6091;51.432;6.880;2022-10-16T09:55:08;24.90;43.80
12060;DHT22;6091;51.432;6.880;2022-10-16T09:57:53;24.90;44.30
12060;DHT22;6091;51.432;6.880;2022-10-16T10:00:23;25.00;43.80
12060;DHT22;6091;51.432;6.880;2022-10-16T10:02:51;25.00;43.80
12060;DHT22;6091;51.432;6.880;2022-10-16T10:05:27;25.00;43.80
12060;DHT22;6091;51.432;6.880;2022-10-16T10:08:04;25.10;43.80
12060;DHT22;6091;51.432;6.880;2022-10-16T10:10:42;25.00;43.70
12060;DHT22;6091;51.432;6.880;2022-10-16T10:13:20;25.10;43.70
12060;DHT22;6091;51.432;6.880;2022-10-16T10:15:49;25.20;43.80
12060;DHT22;6091;51.432;6.880;2022-10-16T10:18:22;25.20;43.80
12060;DHT22;6091;51.432;6.880;2022-10-16T10:21:00;25.30;43.80
12060;DHT22;6091;51.432;6.880;2022-10-16T10:23:30;25.30;44.20
12060;DHT22;6091;51.432;6.880;2022-10-16T10:26:10;25.40;43.90
12060;DHT22;6091;51.432;6.880;2022-10-16T10:32:03;25.60;44.30
12060;DHT22;6091;51.432;6.880;2022-10-16T10:37:54;25.80;44.30
12060;DHT22;6091;51.432;6.880;2022-10-16T10:55:21;27.00;44.30
12060;DHT22;6091;51.432;6.880;2022-10-16T11:04:02;27.90;44.00
12060;DHT22;6091;51.432;6.880;2022-10-16T11:07:18;28.00;43.90
12060;DHT22;6091;51.432;6.880;2022-10-16T11:09:55;28.30;43.70
12060;DHT22;6091;51.432;6.880;2022-10-16T11:12:39;28.60;43.80
12060;DHT22;6091;51.432;6.880;2022-10-16T11:15:18;28.70;43.70
12060;DHT22;6091;51.432;6.880;2022-10-16T11:18:06;28.90;43.10
12060;DHT22;6091;51.432;6.880;2022-10-16T11:20:56;28.60;43.00
12060;DHT22;6091;51.432;6.880;2022-10-16T11:23:57;29.30;42.80
12060;DHT22;6091;51.432;6.880;2022-10-16T11:26:34;29.30;42.70
12060;DHT22;6091;51.432;6.880;2022-10-16T11:29:14;29.60;42.80
12060;DHT22;6091;51.432;6.880;2022-10-16T11:32:05;29.80;42.60
12060;DHT22;6091;51.432;6.880;2022-10-16T11:35:06;30.00;42.60
12060;DHT22;6091;51.432;6.880;2022-10-16T11:37:44;30.20;42.70
12060;DHT22;6091;51.432;6.880;2022-10-16T11:40:23;30.30;41.80
12060;DHT22;6091;51.432;6.880;2022-10-16T11:43:05;30.30;41.30
12060;DHT22;6091;51.432;6.880;2022-10-16T11:45:43;30.40;41.40
12060;DHT22;6091;51.432;6.880;2022-10-16T11:48:42;30.40;41.60
12060;DHT22;6091;51.432;6.880;2022-10-16T11:51:45;30.50;40.80
12060;DHT22;6091;51.432;6.880;2022-10-16T11:54:38;30.50;40.60
12060;DHT22;6091;51.432;6.880;2022-10-16T11:57:32;30.40;40.90
12060;DHT22;6091;51.432;6.880;2022-10-16T12:00:06;30.40;41.00
12060;DHT22;6091;51.432;6.880;2022-10-16T12:03:03;30.40;41.10
12060;DHT22;6091;51.432;6.880;2022-10-16T12:05:52;30.30;40.50
12060;DHT22;6091;51.432;6.880;2022-10-16T12:08:28;30.60;41.30
12060;DHT22;6091;51.432;6.880;2022-10-16T12:11:07;30.60;40.70
12060;DHT22;6091;51.432;6.880;2022-10-16T12:13:39;30.70;40.50
12060;DHT22;6091;51.432;6.880;2022-10-16T12:16:20;30.60;40.30
12060;DHT22;6091;51.432;6.880;2022-10-16T12:18:49;30.70;40.00
12060;DHT22;6091;51.432;6.880;2022-10-16T12:21:30;30.80;39.80
12060;DHT22;6091;51.432;6.880;2022-10-16T12:24:02;30.70;39.50
12060;DHT22;6091;51.432;6.880;2022-10-16T12:26:37;30.70;39.40
12060;DHT22;6091;51.432;6.880;2022-10-16T12:29:14;30.60;39.30
12060;DHT22;6091;51.432;6.880;2022-10-16T12:31:50;30.40;39.10
12060;DHT22;6091;51.432;6.880;2022-10-16T12:34:28;30.30;38.90
12060;DHT22;6091;51.432;6.880;2022-10-16T12:37:33;30.30;39.10
12060;DHT22;6091;51.432;6.880;2022-10-16T12:40:22;30.20;39.20
12060;DHT22;6091;51.432;6.880;2022-10-16T12:42:53;30.00;39.00
12060;DHT22;6091;51.432;6.880;2022-10-16T12:45:31;29.80;38.90
12060;DHT22;6091;51.432;6.880;2022-10-16T12:48:18;29.80;39.00
12060;DHT22;6091;51.432;6.880;2022-10-16T12:50:47;29.50;39.00
12060;DHT22;6091;51.432;6.880;2022-10-16T12:53:20;29.60;39.10
12060;DHT22;6091;51.432;6.880;2022-10-16T13:01:40;29.40;39.20
12060;DHT22;6091;51.432;6.880;2022-10-16T13:04:46;29.20;38.90
12060;DHT22;6091;51.432;6.880;2022-10-16T13:08:30;29.20;38.80
12060;DHT22;6091;51.432;6.880;2022-10-16T13:19:16;28.80;38.80
12060;DHT22;6091;51.432;6.880;2022-10-16T13:22:25;28.50;38.60
12060;DHT22;6091;51.432;6.880;2022-10-16T13:25:33;28.60;38.80
12060;DHT22;6091;51.432;6.880;2022-10-16T13:28:29;28.40;38.80
12060;DHT22;6091;51.432;6.880;2022-10-16T13:31:00;28.40;38.80
12060;DHT22;6091;51.432;6.880;2022-10-16T13:33:41;28.30;38.90
12060;DHT22;6091;51.432;6.880;2022-10-16T13:36:23;28.20;38.80
12060;DHT22;6091;51.432;6.880;2022-10-16T13:39:23;28.20;39.40
12060;DHT22;6091;51.432;6.880;2022-10-16T13:42:12;28.20;39.40
12060;DHT22;6091;51.432;6.880;2022-10-16T13:44:47;27.90;38.90
12060;DHT22;6091;51.432;6.880;2022-10-16T13:47:22;28.00;39.00
12060;DHT22;6091;51.432;6.880;2022-10-16T13:52:32;27.90;39.10
12060;DHT22;6091;51.432;6.880;2022-10-16T13:54:59;27.70;39.00
12060;DHT22;6091;51.432;6.880;2022-10-16T13:57:28;27.70;39.40
12060;DHT22;6091;51.432;6.880;2022-10-16T13:59:55;27.70;39.10
12060;DHT22;6091;51.432;6.880;2022-10-16T14:02:33;27.60;39.20
12060;DHT22;6091;51.432;6.880;2022-10-16T14:05:08;27.70;39.20
12060;DHT22;6091;51.432;6.880;2022-10-16T14:07:37;27.60;39.20
12060;DHT22;6091;51.432;6.880;2022-10-16T14:10:24;27.60;39.70
12060;DHT22;6091;51.432;6.880;2022-10-16T14:13:02;27.60;39.80
12060;DHT22;6091;51.432;6.880;2022-10-16T14:15:32;27.60;39.30
12060;DHT22;6091;51.432;6.880;2022-10-16T14:18:02;27.50;39.20
12060;DHT22;6091;51.432;6.880;2022-10-16T14:20:32;27.50;39.30
12060;DHT22;6091;51.432;6.880;2022-10-16T14:23:28;27.50;39.30
12060;DHT22;6091;51.432;6.880;2022-10-16T14:28:37;27.40;39.40
12060;DHT22;6091;51.432;6.880;2022-10-16T14:36:14;27.20;39.30
12060;DHT22;6091;51.432;6.880;2022-10-16T14:39:06;27.30;39.40
12060;DHT22;6091;51.432;6.880;2022-10-16T14:41:47;27.20;39.40
12060;DHT22;6091;51.432;6.880;2022-10-16T14:44:18;27.20;39.50
12060;DHT22;6091;51.432;6.880;2022-10-16T14:49:19;27.10;39.50
12060;DHT22;6091;51.432;6.880;2022-10-16T14:51:48;27.10;39.50
12060;DHT22;6091;51.432;6.880;2022-10-16T14:54:17;27.00;39.40
12060;DHT22;6091;51.432;6.880;2022-10-16T14:56:48;27.10;39.60
12060;DHT22;6091;51.432;6.880;2022-10-16T15:04:24;27.00;39.50
12060;DHT22;6091;51.432;6.880;2022-10-16T15:06:51;27.00;39.50
12060;DHT22;6091;51.432;6.880;2022-10-16T15:09:18;27.00;39.50
12060;DHT22;6091;51.432;6.880;2022-10-16T15:14:14;27.00;39.60
12060;DHT22;6091;51.432;6.880;2022-10-16T15:19:08;26.90;39.70
12060;DHT22;6091;51.432;6.880;2022-10-16T15:21:35;26.90;39.70
12060;DHT22;6091;51.432;6.880;2022-10-16T15:24:02;26.90;40.20
12060;DHT22;6091;51.432;6.880;2022-10-16T15:26:29;26.90;40.20
12060;DHT22;6091;51.432;6.880;2022-10-16T15:28:57;26.90;40.30
12060;DHT22;6091;51.432;6.880;2022-10-16T15:31:24;29.10;41.20
12060;DHT22;6091;51.432;6.880;2022-10-16T15:33:52;26.80;39.70
12060;DHT22;6091;51.432;6.880;2022-10-16T15:36:26;26.80;39.70
12060;DHT22;6091;51.432;6.880;2022-10-16T15:38:54;26.80;39.70
12060;DHT22;6091;51.432;6.880;2022-10-16T15:41:22;26.80;39.70
12060;DHT22;6091;51.432;6.880;2022-10-16T15:46:22;26.80;39.80
12060;DHT22;6091;51.432;6.880;2022-10-16T15:48:56;26.80;39.80
12060;DHT22;6091;51.432;6.880;2022-10-16T15:51:26;26.80;40.50
12060;DHT22;6091;51.432;6.880;2022-10-16T15:53:59;26.70;39.90
12060;DHT22;6091;51.432;6.880;2022-10-16T15:56:28;26.70;40.30
12060;DHT22;6091;51.432;6.880;2022-10-16T15:58:57;26.80;40.50
12060;DHT22;6091;51.432;6.880;2022-10-16T16:01:25;26.80;40.00
12060;DHT22;6091;51.432;6.880;2022-10-16T16:03:55;26.70;40.10
12060;DHT22;6091;51.432;6.880;2022-10-16T16:06:23;26.70;40.50
12060;DHT22;6091;51.432;6.880;2022-10-16T16:08:53;26.70;40.60
12060;DHT22;6091;51.432;6.880;2022-10-16T16:11:20;26.70;40.70
12060;DHT22;6091;51.432;6.880;2022-10-16T16:13:50;26.60;40.20
12060;DHT22;6091;51.432;6.880;2022-10-16T16:16:17;26.60;40.70
12060;DHT22;6091;51.432;6.880;2022-10-16T16:18:46;26.60;40.80
12060;DHT22;6091;51.432;6.880;2022-10-16T16:21:15;26.50;40.90
12060;DHT22;6091;51.432;6.880;2022-10-16T16:23:42;26.50;40.60
12060;DHT22;6091;51.432;6.880;2022-10-16T16:26:13;26.50;41.10
12060;DHT22;6091;51.432;6.880;2022-10-16T16:28:48;26.60;41.30
12060;DHT22;6091;51.432;6.880;2022-10-16T16:31:16;26.50;40.80
12060;DHT22;6091;51.432;6.880;2022-10-16T16:36:11;26.50;40.90
12060;DHT22;6091;51.432;6.880;2022-10-16T16:38:41;26.50;40.90
12060;DHT22;6091;51.432;6.880;2022-10-16T16:41:20;26.50;41.30
12060;DHT22;6091;51.432;6.880;2022-10-16T16:43:49;26.50;41.00
12060;DHT22;6091;51.432;6.880;2022-10-16T16:46:18;26.70;41.00
12060;DHT22;6091;51.432;6.880;2022-10-16T16:48:46;26.60;41.70
12060;DHT22;6091;51.432;6.880;2022-10-16T16:51:17;26.60;41.60
12060;DHT22;6091;51.432;6.880;2022-10-16T16:53:49;26.60;41.70
12060;DHT22;6091;51.432;6.880;2022-10-16T16:56:20;26.60;41.20
12060;DHT22;6091;51.432;6.880;2022-10-16T16:58:50;26.60;41.80
12060;DHT22;6091;51.432;6.880;2022-10-16T17:01:18;26.60;41.50
12060;DHT22;6091;51.432;6.880;2022-10-16T17:03:49;26.50;41.80
12060;DHT22;6091;51.432;6.880;2022-10-16T17:06:23;26.60;41.40
12060;DHT22;6091;51.432;6.880;2022-10-16T17:08:51;26.60;41.40
12060;DHT22;6091;51.432;6.880;2022-10-16T17:11:22;26.60;41.40
12060;DHT22;6091;51.432;6.880;2022-10-16T17:13:52;26.70;41.40
12060;DHT22;6091;51.432;6.880;2022-10-16T17:16:34;26.60;41.50
12060;DHT22;6091;51.432;6.880;2022-10-16T17:19:04;26.60;41.50
12060;DHT22;6091;51.432;6.880;2022-10-16T17:21:34;26.60;42.00
12060;DHT22;6091;51.432;6.880;2022-10-16T17:24:02;26.60;41.70
12060;DHT22;6091;51.432;6.880;2022-10-16T17:26:30;26.60;41.50
12060;DHT22;6091;51.432;6.880;2022-10-16T17:29:00;26.70;42.10
12060;DHT22;6091;51.432;6.880;2022-10-16T17:31:30;26.60;41.50
12060;DHT22;6091;51.432;6.880;2022-10-16T17:34:00;26.70;42.20
12060;DHT22;6091;51.432;6.880;2022-10-16T17:36:32;26.60;41.50
12060;DHT22;6091;51.432;6.880;2022-10-16T17:39:03;26.70;41.60
12060;DHT22;6091;51.432;6.880;2022-10-16T17:41:33;26.60;41.50
12060;DHT22;6091;51.432;6.880;2022-10-16T17:44:02;26.60;41.50
12060;DHT22;6091;51.432;6.880;2022-10-16T17:46:31;26.70;41.70
12060;DHT22;6091;51.432;6.880;2022-10-16T17:49:05;26.60;41.60
12060;DHT22;6091;51.432;6.880;2022-10-16T17:51:32;26.60;41.60
12060;DHT22;6091;51.432;6.880;2022-10-16T17:54:00;26.60;41.50
12060;DHT22;6091;51.432;6.880;2022-10-16T17:56:29;26.60;41.60
12060;DHT22;6091;51.432;6.880;2022-10-16T17:58:59;26.70;41.50
12060;DHT22;6091;51.432;6.880;2022-10-16T18:01:32;26.60;41.60
12060;DHT22;6091;51.432;6.880;2022-10-16T18:04:07;26.40;41.50
12060;DHT22;6091;51.432;6.880;2022-10-16T18:06:36;26.60;41.50
12060;DHT22;6091;51.432;6.880;2022-10-16T18:11:49;26.60;41.60
12060;DHT22;6091;51.432;6.880;2022-10-16T18:14:27;26.60;42.00
12060;DHT22;6091;51.432;6.880;2022-10-16T18:16:55;26.70;41.50
12060;DHT22;6091;51.432;6.880;2022-10-16T18:19:24;26.60;42.00
12060;DHT22;6091;51.432;6.880;2022-10-16T18:21:52;26.70;42.10
12060;DHT22;6091;51.432;6.880;2022-10-16T18:24:21;26.60;42.10
12060;DHT22;6091;51.432;6.880;2022-10-16T18:26:52;26.60;42.10
12060;DHT22;6091;51.432;6.880;2022-10-16T18:29:23;26.70;42.20
12060;DHT22;6091;51.432;6.880;2022-10-16T18:31:52;26.60;42.80